Time;durP1;ratioP1;P1;durP2;ratioP2;P2;SDS_P1;SDS_P2;PMS_P1;PMS_P2;Temp;Humidity;BMP_temperature;BMP_pressure;BME280_temperature;BME280_humidity;BME280_pressure;Samples;Min_cycle;Max_cycle;Signal;HPM_P1;HPM_P2
2022/12/06 00:01:28;;;;;;;26.90;14.45;;;;;;;3.74;100.00;101881.00;5104259;28;20391;-76
2022/12/06 00:04:03;;;;;;;27.05;14.88;;;;;;;3.76;100.00;101881.06;5101840;28;20028;-82
2022/12/06 00:06:30;;;;;;;27.95;14.75;;;;;;;3.75;100.00;101872.31;5106098;28;20073;-83
2022/12/06 00:08:57;;;;;;;26.80;14.88;;;;;;;3.77;100.00;101877.59;5103530;28;20048;-77
2022/12/06 00:11:26;;;;;;;28.25;14.70;;;;;;;3.76;100.00;101881.94;5106958;28;20027;-80
2022/12/06 00:13:58;;;;;;;27.38;14.50;;;;;;;3.79;100.00;101876.88;5104300;28;20428;-82
2022/12/06 00:16:24;;;;;;;25.88;13.80;;;;;;;3.78;100.00;101875.06;5105609;28;20028;-81
2022/12/06 00:18:50;;;;;;;26.92;13.95;;;;;;;3.76;100.00;101871.50;5104146;28;20024;-76
2022/12/06 00:21:20;;;;;;;26.65;14.18;;;;;;;3.79;100.00;101875.97;5107409;28;20058;-78
2022/12/06 00:23:50;;;;;;;25.83;13.77;;;;;;;3.77;100.00;101881.13;5100010;28;20028;-79
2022/12/06 00:26:16;;;;;;;26.60;14.45;;;;;;;3.77;100.00;101880.22;5099763;28;20077;-83
2022/12/06 00:28:42;;;;;;;27.23;14.35;;;;;;;3.78;100.00;101879.41;5106805;28;20073;-69
2022/12/06 00:31:12;;;;;;;25.35;13.82;;;;;;;3.80;100.00;101873.44;5104049;28;20040;-68
2022/12/06 00:33:37;;;;;;;27.60;15.20;;;;;;;3.76;100.00;101871.50;5106243;28;20024;-68
2022/12/06 00:36:06;;;;;;;25.70;13.48;;;;;;;3.79;100.00;101871.63;5104936;28;20047;-68
2022/12/06 00:38:33;;;;;;;26.25;14.25;;;;;;;3.79;100.00;101871.63;5105185;28;20031;-69
2022/12/06 00:41:02;;;;;;;26.20;13.88;;;;;;;3.80;100.00;101882.97;5105533;27;20153;-68
2022/12/06 00:43:28;;;;;;;26.02;13.50;;;;;;;3.79;100.00;101868.13;5104650;28;20066;-68
2022/12/06 00:45:54;;;;;;;25.13;13.52;;;;;;;3.81;100.00;101867.34;5106083;28;20075;-68
2022/12/06 00:48:20;;;;;;;26.35;14.18;;;;;;;3.80;100.00;101865.59;5103306;28;20032;-71
2022/12/06 00:50:45;;;;;;;25.65;13.60;;;;;;;3.79;100.00;101871.63;5106777;28;20051;-69
2022/12/06 00:53:10;;;;;;;25.55;13.65;;;;;;;3.81;100.00;101876.94;5103520;28;20034;-68
2022/12/06 00:55:36;;;;;;;25.05;13.63;;;;;;;3.81;100.00;101875.22;5105485;28;20110;-68
2022/12/06 00:58:01;;;;;;;25.05;13.77;;;;;;;3.81;100.00;101869.09;5104726;28;20035;-68
2022/12/06 01:00:27;;;;;;;24.75;13.52;;;;;;;3.82;100.00;101874.41;5104060;28;20035;-68
2022/12/06 01:02:52;;;;;;;25.63;13.57;;;;;;;3.80;100.00;101876.06;5106130;27;20478;-69
2022/12/06 01:05:18;;;;;;;24.85;13.25;;;;;;;3.80;100.00;101876.06;5102847;28;20560;-68
2022/12/06 01:07:43;;;;;;;25.25;13.65;;;;;;;3.79;100.00;101879.47;5106168;28;20042;-68
2022/12/06 01:10:09;;;;;;;24.25;13.23;;;;;;;3.80;100.00;101877.75;5103680;28;20478;-68
2022/12/06 01:12:34;;;;;;;25.17;13.52;;;;;;;3.80;100.00;101870.81;5104783;28;20038;-83
2022/12/06 01:15:00;;;;;;;24.88;13.40;;;;;;;3.81;100.00;101880.44;5104561;28;20032;-86
2022/12/06 01:17:25;;;;;;;24.45;13.40;;;;;;;3.82;100.00;101870.91;5103595;28;20028;-86
2022/12/06 01:19:50;;;;;;;25.65;13.55;;;;;;;3.79;100.00;101874.25;5105792;28;20034;-85
2022/12/06 01:22:16;;;;;;;24.83;13.13;;;;;;;3.80;100.00;101876.06;5102401;28;20043;-70
2022/12/06 01:24:41;;;;;;;25.25;12.75;;;;;;;3.80;100.00;101867.28;5105722;28;20114;-86
2022/12/06 01:27:06;;;;;;;24.05;12.65;;;;;;;3.80;100.00;101875.13;5103506;28;20054;-85
2022/12/06 01:29:32;;;;;;;24.60;12.63;;;;;;;3.78;100.00;101872.44;5104247;28;20110;-85
2022/12/06 01:31:57;;;;;;;25.08;12.52;;;;;;;3.79;100.00;101881.22;5104918;28;20031;-83
2022/12/06 01:34:23;;;;;;;25.02;12.50;;;;;;;3.80;100.00;101870.81;5102729;28;20032;-81
2022/12/06 01:36:49;;;;;;;26.20;12.93;;;;;;;3.76;100.00;101876.72;5105931;28;20064;-71
2022/12/06 01:39:14;;;;;;;24.95;12.43;;;;;;;3.78;100.00;101876.78;5098449;28;20017;-86
2022/12/06 01:41:40;;;;;;;25.83;12.30;;;;;;;3.79;100.00;101881.22;5104912;28;20016;-86
2022/12/06 01:44:26;;;;;;;25.65;12.68;;;;;;;3.77;100.00;101881.13;5103473;28;20047;-84
2022/12/06 01:46:52;;;;;;;26.10;12.98;;;;;;;3.81;100.00;101872.59;5099471;28;20032;-86
2022/12/06 01:49:21;;;;;;;25.08;12.32;;;;;;;3.80;100.00;101876.06;5105564;28;20024;-69
2022/12/06 01:51:52;;;;;;;26.50;13.25;;;;;;;3.81;100.00;101875.22;5098076;28;20089;-70
2022/12/06 01:54:19;;;;;;;26.38;12.80;;;;;;;3.82;100.00;101868.28;5098412;28;20348;-68
2022/12/06 01:56:46;;;;;;;26.45;12.88;;;;;;;3.83;100.00;101870.09;5097800;28;20030;-69
2022/12/06 01:59:12;;;;;;;25.85;12.32;;;;;;;3.82;100.00;101869.16;5105151;28;20059;-68
2022/12/06 02:01:39;;;;;;;26.27;12.40;;;;;;;3.81;100.00;101864.75;5103139;28;20024;-67
2022/12/06 02:04:05;;;;;;;24.80;12.48;;;;;;;3.81;100.00;101869.97;5102430;28;20028;-68
2022/12/06 02:06:31;;;;;;;24.90;12.32;;;;;;;3.81;100.00;101869.97;5103720;28;20115;-69
2022/12/06 02:08:59;;;;;;;25.23;11.90;;;;;;;3.82;100.00;101868.28;5103017;28;20028;-69
2022/12/06 02:11:25;;;;;;;25.05;11.77;;;;;;;3.81;100.00;101867.34;5104575;28;20020;-68
2022/12/06 02:13:51;;;;;;;25.60;12.20;;;;;;;3.81;100.00;101869.97;5080375;28;20055;-68
2022/12/06 02:16:55;;;;;;;25.48;11.95;;;;;;;3.87;100.00;101868.50;5103985;28;20036;-67
2022/12/06 02:19:44;;;;;;;24.10;11.60;;;;;;;3.86;100.00;101869.31;5043130;28;20426;-69
2022/12/06 02:22:21;;;;;;;23.48;11.00;;;;;;;3.82;100.00;101871.78;5102076;28;20028;-69
2022/12/06 02:24:52;;;;;;;23.92;10.90;;;;;;;3.81;100.00;101867.34;5097514;28;20115;-68
2022/12/06 02:27:36;;;;;;;23.60;10.77;;;;;;;3.82;100.00;101869.16;5097686;28;20032;-68
2022/12/06 02:30:17;;;;;;;23.25;10.35;;;;;;;3.81;100.00;101871.72;5101300;28;20078;-67
2022/12/06 02:33:04;;;;;;;23.63;10.63;;;;;;;3.81;100.00;101859.50;5101705;28;20043;-69
2022/12/06 02:35:45;;;;;;;23.27;10.55;;;;;;;3.80;100.00;101862.97;5100562;28;20052;-72
2022/12/06 02:38:10;;;;;;;23.98;10.32;;;;;;;3.82;100.00;101860.44;5101695;28;20036;-68
2022/12/06 02:40:42;;;;;;;23.25;10.38;;;;;;;3.83;100.00;101862.22;5103273;28;20039;-68
2022/12/06 02:43:13;;;;;;;23.20;10.35;;;;;;;3.82;100.00;101863.03;5102042;28;20486;-68
2022/12/06 02:45:46;;;;;;;22.50;9.85;;;;;;;3.79;100.00;101853.31;5103855;28;20593;-68
2022/12/06 02:48:14;;;;;;;23.75;10.73;;;;;;;3.76;100.00;101855.78;5101979;28;20416;-72
2022/12/06 02:50:45;;;;;;;23.92;10.02;;;;;;;3.76;100.00;101853.19;5103786;28;20463;-70
2022/12/06 02:53:14;;;;;;;23.90;10.65;;;;;;;3.76;100.00;101850.56;5101674;28;20059;-78
2022/12/06 02:55:41;;;;;;;22.17;9.63;;;;;;;3.77;100.00;101852.38;5103908;28;20990;-84
2022/12/06 02:58:06;;;;;;;23.50;10.20;;;;;;;3.75;100.00;101848.75;5102192;28;20028;-84
2022/12/06 03:00:35;;;;;;;23.13;10.30;;;;;;;3.75;100.00;101851.38;5102627;28;20442;-75
2022/12/06 03:03:20;;;;;;;23.63;10.10;;;;;;;3.77;100.00;101852.38;5103069;28;20024;-84
2022/12/06 03:06:00;;;;;;;24.02;10.50;;;;;;;3.79;100.00;101855.06;5104698;28;20027;-73
2022/12/06 03:08:45;;;;;;;24.33;10.38;;;;;;;3.81;100.00;101849.06;5099206;28;20024;-76
2022/12/06 03:11:11;;;;;;;23.73;10.43;;;;;;;3.76;100.00;101845.34;5102005;28;20024;-73
2022/12/06 03:13:58;;;;;;;22.95;10.05;;;;;;;3.76;100.00;101853.19;5103030;28;20395;-85
2022/12/06 03:16:27;;;;;;;24.13;10.15;;;;;;;3.78;100.00;101856.75;5098205;28;20080;-84
2022/12/06 03:19:20;;;;;;;24.25;10.57;;;;;;;3.78;100.00;101848.91;5104018;28;20039;-85
2022/12/06 03:21:54;;;;;;;22.58;10.20;;;;;;;3.78;100.00;101856.75;5088174;28;20040;-85
2022/12/06 03:24:21;;;;;;;23.92;10.25;;;;;;;3.79;100.00;101853.31;5097209;28;20049;-85
2022/12/06 03:26:49;;;;;;;24.40;10.75;;;;;;;3.83;100.00;101862.22;5096886;28;20547;-85
2022/12/06 03:29:17;;;;;;;23.95;10.80;;;;;;;3.79;100.00;101863.78;5103842;28;20085;-74
2022/12/06 03:31:46;;;;;;;24.20;10.48;;;;;;;3.78;100.00;101854.13;5101042;28;20475;-69
2022/12/06 03:34:26;;;;;;;23.85;10.40;;;;;;;3.82;100.00;101861.31;5103737;28;20065;-68
2022/12/06 03:36:52;;;;;;;24.63;10.50;;;;;;;3.79;100.00;101855.94;5097534;28;20452;-69
2022/12/06 03:39:44;;;;;;;24.58;10.70;;;;;;;3.81;100.00;101867.34;5103033;28;20115;-68
2022/12/06 03:42:10;;;;;;;24.00;10.93;;;;;;;3.78;100.00;101854.13;5102598;28;20478;-68
2022/12/06 03:44:36;;;;;;;25.25;11.18;;;;;;;3.80;100.00;101851.59;5100684;28;20092;-68
2022/12/06 03:47:09;;;;;;;23.83;10.20;;;;;;;3.78;100.00;101859.38;5102240;28;20534;-68
2022/12/06 03:49:45;;;;;;;24.75;10.82;;;;;;;3.80;100.00;101854.22;5102270;28;20042;-68
2022/12/06 03:52:11;;;;;;;24.38;11.07;;;;;;;3.78;100.00;101854.13;5107077;28;20035;-68
2022/12/06 03:54:38;;;;;;;25.35;10.95;;;;;;;3.77;100.00;101852.38;5105442;28;20103;-68
2022/12/06 03:57:04;;;;;;;24.48;11.18;;;;;;;3.77;100.00;101852.38;5106084;28;20028;-68
2022/12/06 03:59:30;;;;;;;26.77;11.23;;;;;;;3.79;100.00;101855.06;5106388;28;20020;-68
2022/12/06 04:01:55;;;;;;;26.17;11.05;;;;;;;3.76;100.00;101852.28;5103268;28;20055;-69
2022/12/06 04:04:21;;;;;;;25.65;11.70;;;;;;;3.78;100.00;101859.38;5107804;28;20031;-68
2022/12/06 04:06:46;;;;;;;25.70;11.82;;;;;;;3.79;100.00;101858.56;5099865;28;20024;-68
2022/12/06 04:11:55;;;;;;;25.75;10.98;;;;;;;3.77;100.00;101854.97;5101962;28;20038;-68
2022/12/06 04:14:21;;;;;;;26.58;11.10;;;;;;;3.77;100.00;101847.13;5089675;28;20035;-68
2022/12/06 04:19:30;;;;;;;27.73;11.02;;;;;;;3.75;100.00;101846.16;5103074;28;20039;-67
2022/12/06 04:24:39;;;;;;;25.92;10.98;;;;;;;3.74;100.00;101852.22;5106434;28;20050;-68
2022/12/06 04:40:48;;;;;;;26.40;11.75;;;;;;;3.77;100.00;101852.38;5103748;28;20083;-68
2022/12/06 04:45:57;;;;;;;29.63;11.90;;;;;;;3.80;100.00;101851.59;5101663;28;20123;-68
2022/12/06 04:48:22;;;;;;;26.77;12.02;;;;;;;3.74;100.00;101854.84;5106835;28;20051;-68
2022/12/06 04:50:51;;;;;;;29.38;12.32;;;;;;;3.75;100.00;101859.22;5102207;28;20036;-68
2022/12/06 04:53:16;;;;;;;28.83;12.55;;;;;;;3.74;100.00;101856.53;5098953;28;20024;-84
2022/12/06 04:55:46;;;;;;;27.90;12.45;;;;;;;3.74;100.00;101856.53;5106221;28;20024;-85
2022/12/06 04:58:12;;;;;;;29.92;13.43;;;;;;;3.75;100.00;101855.72;5103634;28;20089;-85
2022/12/06 05:00:37;;;;;;;28.88;12.77;;;;;;;3.72;100.00;101847.72;5104830;28;20036;-83
2022/12/06 05:03:02;;;;;;;27.67;12.13;;;;;;;3.73;100.00;101847.81;5104913;28;20106;-84
2022/12/06 05:05:28;;;;;;;26.85;12.45;;;;;;;3.74;100.00;101852.22;5103699;28;20050;-85
2022/12/06 05:07:53;;;;;;;27.95;13.05;;;;;;;3.75;100.00;101854.00;5106042;28;20024;-81
2022/12/06 05:10:18;;;;;;;28.77;12.20;;;;;;;3.75;100.00;101854.00;5103173;28;20039;-85
2022/12/06 05:12:44;;;;;;;29.55;12.18;;;;;;;3.74;100.00;101843.47;5106104;28;20031;-70
2022/12/06 05:15:09;;;;;;;25.83;11.45;;;;;;;3.71;100.00;101849.44;5103797;28;20015;-75
2022/12/06 05:17:35;;;;;;;28.70;12.43;;;;;;;3.71;100.00;101845.94;5104688;28;20059;-84
2022/12/06 05:20:00;;;;;;;26.83;11.73;;;;;;;3.69;100.00;101845.84;5104862;28;20481;-79
2022/12/06 05:22:25;;;;;;;28.70;12.27;;;;;;;3.67;100.00;101845.78;5103123;28;20672;-84
2022/12/06 05:24:51;;;;;;;28.55;11.95;;;;;;;3.71;100.00;101851.16;5106245;28;20368;-84
2022/12/06 05:27:16;;;;;;;28.63;11.60;;;;;;;3.67;100.00;101842.28;5102460;28;20100;-71
2022/12/06 05:29:41;;;;;;;27.45;12.02;;;;;;;3.68;100.00;101846.66;5105300;28;20554;-81
2022/12/06 05:32:07;;;;;;;28.40;12.07;;;;;;;3.66;100.00;101843.09;5103740;27;20056;-84
2022/12/06 05:34:32;;;;;;;26.48;11.88;;;;;;;3.65;100.00;101842.19;5103677;28;20051;-79
2022/12/06 05:36:57;;;;;;;27.17;12.00;;;;;;;3.62;100.00;101842.03;5105441;27;20370;-84
2022/12/06 05:39:23;;;;;;;28.67;11.98;;;;;;;3.63;100.00;101845.56;5102335;28;20028;-82
2022/12/06 05:41:48;;;;;;;27.27;12.27;;;;;;;3.63;100.00;101848.19;5105684;28;20024;-72
2022/12/06 05:44:14;;;;;;;27.85;12.13;;;;;;;3.60;100.00;101843.69;5102825;28;20348;-85
2022/12/06 05:46:39;;;;;;;26.25;11.52;;;;;;;3.59;100.00;101846.25;5104422;28;20029;-84
2022/12/06 05:49:04;;;;;;;26.58;11.38;;;;;;;3.57;100.00;101850.47;5104058;28;20041;-85
2022/12/06 05:51:30;;;;;;;27.17;11.90;;;;;;;3.55;100.00;101846.91;5103428;28;20032;-85
2022/12/06 05:53:55;;;;;;;29.08;11.82;;;;;;;3.53;100.00;101851.19;5104916;28;20024;-83
2022/12/06 05:56:20;;;;;;;25.50;11.10;;;;;;;3.54;100.00;101845.09;5102125;28;20050;-85
2022/12/06 05:58:46;;;;;;;27.45;12.10;;;;;;;3.56;100.00;101856.56;5105376;28;20063;-84
2022/12/06 06:01:11;;;;;;;27.35;11.43;;;;;;;3.54;100.00;101842.50;5101428;28;20032;-84
2022/12/06 06:03:37;;;;;;;27.10;11.52;;;;;;;3.53;100.00;101845.94;5104164;28;20036;-83
2022/12/06 06:06:03;;;;;;;26.00;11.50;;;;;;;3.51;100.00;101842.34;5103639;28;20028;-84
2022/12/06 06:08:30;;;;;;;28.75;11.48;;;;;;;3.48;100.00;101849.22;5102641;28;20036;-81
2022/12/06 06:10:56;;;;;;;26.13;11.25;;;;;;;3.47;100.00;101847.41;5105083;28;20035;-85
2022/12/06 06:13:22;;;;;;;25.17;10.60;;;;;;;3.47;100.00;101852.66;5101177;28;20073;-84
2022/12/06 06:15:48;;;;;;;26.33;10.90;;;;;;;3.47;100.00;101844.81;5105292;28;20023;-84
2022/12/06 06:18:14;;;;;;;26.52;10.70;;;;;;;3.42;100.00;101853.25;5102606;28;20506;-73
2022/12/06 06:20:39;;;;;;;25.65;10.25;;;;;;;3.45;100.00;101858.63;5104033;28;20024;-75
2022/12/06 06:23:05;;;;;;;24.92;10.30;;;;;;;3.45;100.00;101853.38;5103217;28;20031;-69
2022/12/06 06:25:30;;;;;;;26.80;10.30;;;;;;;3.43;100.00;101855.03;5102603;28;20028;-85
2022/12/06 06:27:55;;;;;;;25.15;11.05;;;;;;;3.43;100.00;101855.03;5103499;28;20024;-68
2022/12/06 06:30:21;;;;;;;25.65;10.70;;;;;;;3.41;100.00;101854.97;5101059;28;20410;-68
2022/12/06 06:32:46;;;;;;;24.95;10.00;;;;;;;3.39;100.00;101847.88;5097905;28;20054;-64
2022/12/06 06:35:12;;;;;;;24.60;10.57;;;;;;;3.40;100.00;101849.66;5094362;28;20398;-67
2022/12/06 06:37:37;;;;;;;25.60;10.65;;;;;;;3.39;100.00;101853.09;5093166;28;20089;-66
2022/12/06 06:40:03;;;;;;;24.92;10.40;;;;;;;3.37;100.00;101850.41;5097078;28;20042;-65
2022/12/06 06:42:28;;;;;;;25.30;10.32;;;;;;;3.34;100.00;101844.16;5095875;28;20118;-66
2022/12/06 06:44:54;;;;;;;25.30;10.43;;;;;;;3.29;100.00;101842.19;5094252;28;20028;-70
2022/12/06 06:47:21;;;;;;;26.73;10.50;;;;;;;3.24;100.00;101842.78;5096619;28;20032;-66
2022/12/06 06:49:46;;;;;;;25.77;10.20;;;;;;;3.14;100.00;101847.53;5101155;28;20020;-66
2022/12/06 06:52:11;;;;;;;25.80;10.88;;;;;;;3.03;100.00;101843.50;5097748;28;20038;-67
2022/12/06 06:54:37;;;;;;;25.48;10.43;;;;;;;2.91;100.00;101837.63;5094419;28;20032;-67
2022/12/06 06:57:02;;;;;;;25.30;10.48;;;;;;;2.85;100.00;101843.41;5094801;28;20355;-67
2022/12/06 06:59:28;;;;;;;27.23;10.98;;;;;;;2.84;100.00;101838.13;5097896;28;20451;-65
2022/12/06 07:01:53;;;;;;;26.10;10.95;;;;;;;2.83;100.00;101847.69;5094192;28;20043;-67
2022/12/06 07:04:18;;;;;;;24.80;10.10;;;;;;;2.82;100.00;101842.38;5096583;28;20031;-68
2022/12/06 07:06:44;;;;;;;27.08;11.20;;;;;;;2.71;100.00;101842.72;5099668;28;20073;-67
2022/12/06 07:09:10;;;;;;;26.08;10.88;;;;;;;2.63;100.00;101846.63;5095543;28;20105;-66
2022/12/06 07:11:35;;;;;;;26.77;10.40;;;;;;;2.56;100.00;101845.44;5099581;28;20041;-72
2022/12/06 07:14:01;;;;;;;25.73;10.95;;;;;;;2.49;100.00;101847.63;5099440;28;20526;-69
2022/12/06 07:16:27;;;;;;;26.65;11.35;;;;;;;2.41;100.00;101850.72;5097048;28;20050;-67
2022/12/06 07:18:52;;;;;;;25.73;11.30;;;;;;;2.33;100.00;101841.59;5100072;28;20077;-65
2022/12/06 07:21:18;;;;;;;27.27;11.15;;;;;;;2.33;100.00;101848.50;5097125;28;20016;-66
2022/12/06 07:23:43;;;;;;;28.30;11.02;;;;;;;2.32;100.00;101845.00;5095998;28;20028;-66
2022/12/06 07:26:11;;;;;;;26.50;11.20;;;;;;;2.36;100.00;101849.59;5102618;28;20427;-66
2022/12/06 07:28:38;;;;;;;26.90;11.35;;;;;;;2.39;100.00;101857.56;5099903;28;20036;-67
2022/12/06 07:31:08;;;;;;;28.48;11.60;;;;;;;2.44;100.00;101853.47;5100528;28;20620;-66
2022/12/06 07:33:34;;;;;;;26.02;11.32;;;;;;;2.54;100.00;101857.50;5100755;28;20115;-65
2022/12/06 07:35:59;;;;;;;25.38;11.27;;;;;;;2.55;100.00;101848.84;5099328;28;20551;-65
2022/12/06 07:38:24;;;;;;;29.75;12.82;;;;;;;2.57;100.00;101851.53;5103933;28;20031;-66
2022/12/06 07:40:50;;;;;;;28.98;12.27;;;;;;;2.60;100.00;101851.69;5099477;28;20024;-67
2022/12/06 07:45:59;;;;;;;28.92;12.23;;;;;;;2.63;100.00;101854.47;5098023;28;20062;-67
2022/12/06 07:48:24;;;;;;;28.27;11.95;;;;;;;2.64;100.00;101850.16;5098738;28;20382;-66
2022/12/06 07:50:51;;;;;;;27.63;11.88;;;;;;;2.64;100.00;101858.88;5102942;28;20036;-65
2022/12/06 07:53:17;;;;;;;27.40;12.25;;;;;;;2.67;100.00;101864.25;5102056;28;20020;-65
2022/12/06 07:55:42;;;;;;;27.05;11.27;;;;;;;2.71;100.00;101857.47;5099693;28;20024;-67
2022/12/06 07:58:08;;;;;;;26.90;11.27;;;;;;;2.74;100.00;101874.22;5104863;28;20081;-65
2022/12/06 08:00:35;;;;;;;26.92;11.48;;;;;;;2.76;100.00;101867.34;5090248;28;20074;-66
2022/12/06 08:03:00;;;;;;;27.35;10.98;;;;;;;2.79;100.00;101869.22;5098444;27;20115;-68
2022/12/06 08:05:26;;;;;;;26.08;10.43;;;;;;;2.81;100.00;101875.44;5096904;28;20107;-67
2022/12/06 08:07:51;;;;;;;25.42;10.55;;;;;;;2.88;100.00;101868.81;5096691;28;20480;-67
2022/12/06 08:10:17;;;;;;;25.63;10.55;;;;;;;2.89;100.00;101870.63;5095282;28;20035;-66
2022/12/06 08:12:42;;;;;;;27.45;10.88;;;;;;;2.90;100.00;101875.91;5099137;28;20028;-66
2022/12/06 08:15:11;;;;;;;23.85;10.13;;;;;;;2.92;100.00;101879.50;5098189;27;20028;-68
2022/12/06 08:17:38;;;;;;;25.52;10.20;;;;;;;2.95;100.00;101876.16;5096984;28;20364;-68
2022/12/06 08:20:06;;;;;;;23.30;9.88;;;;;;;2.99;100.00;101878.09;5094238;28;20035;-72
2022/12/06 08:22:31;;;;;;;25.55;10.20;;;;;;;3.00;100.00;101876.38;5081445;28;20063;-70
2022/12/06 08:24:57;;;;;;;25.13;10.05;;;;;;;2.99;100.00;101872.00;5100837;28;20123;-69
2022/12/06 08:27:22;;;;;;;26.30;10.40;;;;;;;3.06;100.00;101879.31;5100887;28;20035;-71
2022/12/06 08:29:48;;;;;;;23.77;9.25;;;;;;;3.08;100.00;101875.06;5099847;28;20036;-76
2022/12/06 08:32:13;;;;;;;24.75;10.02;;;;;;;3.13;100.00;101879.72;5103051;28;20123;-73
2022/12/06 08:34:38;;;;;;;24.00;9.77;;;;;;;3.16;100.00;101876.38;5099194;28;20032;-78
2022/12/06 08:37:04;;;;;;;24.48;9.77;;;;;;;3.17;100.00;101866.81;5098835;28;20036;-73
2022/12/06 08:39:29;;;;;;;23.65;9.20;;;;;;;3.10;100.00;101871.72;5100630;28;20941;-72
2022/12/06 08:41:56;;;;;;;23.05;9.07;;;;;;;3.05;100.00;101878.41;5102221;28;20076;-68
2022/12/06 08:44:22;;;;;;;23.45;9.05;;;;;;;2.99;100.00;101878.09;5103552;28;20540;-68
2022/12/06 08:46:48;;;;;;;24.50;9.88;;;;;;;2.89;100.00;101881.06;5104550;28;20489;-81
2022/12/06 08:49:15;;;;;;;22.65;9.55;;;;;;;2.75;100.00;101881.25;5102302;28;20052;-80
2022/12/06 08:51:42;;;;;;;23.27;9.00;;;;;;;2.65;100.00;101884.19;5106666;28;20023;-77
2022/12/06 08:54:11;;;;;;;24.40;9.95;;;;;;;2.60;100.00;101883.91;5103274;28;20114;-80
2022/12/06 08:56:36;;;;;;;24.50;10.10;;;;;;;2.56;100.00;101886.28;5106459;28;20028;-74
2022/12/06 08:59:02;;;;;;;26.88;10.98;;;;;;;2.58;100.00;101882.06;5102544;28;20023;-79
2022/12/06 09:01:30;;;;;;;25.23;10.35;;;;;;;2.74;100.00;101889.88;5106347;28;20066;-80
2022/12/06 09:03:57;;;;;;;26.52;11.32;;;;;;;2.98;100.00;101886.75;5103433;28;20036;-80
2022/12/06 09:06:22;;;;;;;25.77;11.40;;;;;;;3.32;100.00;101898.97;5105767;28;20016;-80
2022/12/06 09:08:48;;;;;;;25.60;11.52;;;;;;;3.63;100.00;101893.53;5104746;28;20532;-81
2022/12/06 09:11:14;;;;;;;24.75;11.18;;;;;;;3.82;100.00;101887.47;5104061;28;20020;-81
2022/12/06 09:13:41;;;;;;;22.90;9.77;;;;;;;3.87;100.00;101890.31;5102041;27;20082;-81
2022/12/06 09:16:09;;;;;;;21.02;8.30;;;;;;;3.85;100.00;101894.59;5105891;28;20051;-81
2022/12/06 09:18:35;;;;;;;21.65;8.60;;;;;;;3.94;100.00;101894.13;5103121;28;20032;-81
2022/12/06 09:21:09;;;;;;;21.77;8.55;;;;;;;4.24;100.00;101899.00;5106344;28;20028;-81
2022/12/06 09:23:35;;;;;;;21.15;8.30;;;;;;;4.47;100.00;101901.00;5099160;28;20035;-80
2022/12/06 09:26:01;;;;;;;21.45;8.18;;;;;;;4.69;100.00;101902.88;5106222;28;20039;-77
2022/12/06 09:28:28;;;;;;;21.73;7.40;;;;;;;4.63;100.00;101902.59;5102610;28;20024;-81
2022/12/06 09:30:53;;;;;;;21.25;7.57;;;;;;;4.58;100.00;101897.97;5104813;28;20177;-81
2022/12/06 09:33:19;;;;;;;21.70;7.97;;;;;;;4.74;100.00;101902.19;5103775;28;20122;-81
2022/12/06 09:35:44;;;;;;;20.42;7.55;;;;;;;5.03;100.00;101901.75;5105602;28;20046;-78
2022/12/06 09:38:10;;;;;;;20.25;7.10;;;;;;;5.24;100.00;101904.41;5103237;28;20073;-68
2022/12/06 09:41:01;;;;;;;21.50;7.50;;;;;;;5.47;100.00;101901.84;5105441;28;20490;-68
2022/12/06 09:43:45;;;;;;;19.48;6.75;;;;;;;5.42;100.00;101903.41;5096371;28;20047;-68
2022/12/06 09:46:39;;;;;;;19.30;6.53;;;;;;;5.80;100.00;101898.84;5101024;28;20073;-70
2022/12/06 09:49:55;;;;;;;19.50;6.35;;;;;;;6.05;100.00;101903.38;5098419;28;20107;-69
2022/12/06 09:52:26;;;;;;;20.25;6.30;;;;;;;6.01;100.00;101905.81;5071149;28;20096;-69
2022/12/06 09:55:10;;;;;;;18.67;5.80;;;;;;;6.15;100.00;101904.66;5098246;28;20022;-78
2022/12/06 09:58:15;;;;;;;19.27;6.35;;;;;;;6.35;100.00;101901.88;5098819;28;20073;-76
2022/12/06 10:00:57;;;;;;;19.83;6.25;;;;;;;6.32;100.00;101907.03;5095812;28;20474;-78
2022/12/06 10:03:44;;;;;;;19.20;6.03;;;;;;;6.28;100.00;101908.66;5098604;28;20032;-78
2022/12/06 10:06:17;;;;;;;17.73;5.80;;;;;;;6.15;100.00;101902.03;5094363;28;20027;-81
2022/12/06 10:09:25;;;;;;;18.50;6.03;;;;;;;6.05;100.00;101897.25;5099579;28;20028;-81
2022/12/06 10:12:09;;;;;;;18.55;6.10;;;;;;;6.46;100.00;101895.31;5099419;28;20059;-81
2022/12/06 10:15:08;;;;;;;19.25;6.10;;;;;;;7.01;100.00;101896.47;5096821;28;20024;-83
2022/12/06 10:17:45;;;;;;;18.60;6.25;;;;;;;7.21;100.00;101884.03;5094151;28;20027;-82
2022/12/06 10:20:18;;;;;;;17.90;5.80;;;;;;;7.22;100.00;101895.44;5097566;28;20028;-83
2022/12/06 10:23:03;;;;;;;17.48;5.80;;;;;;;7.27;100.00;101894.75;5097213;28;20028;-81
2022/12/06 10:26:03;;;;;;;18.60;6.32;;;;;;;6.74;100.00;101888.47;5094819;28;20043;-83
2022/12/06 10:28:41;;;;;;;18.45;6.13;;;;;;;6.44;100.00;101889.13;5093650;28;20023;-83
2022/12/06 10:31:22;;;;;;;17.90;5.90;;;;;;;7.41;100.00;101881.16;5104211;28;20020;-81
2022/12/06 10:33:47;;;;;;;20.65;5.88;;;;;;;8.47;100.00;101886.31;5098038;28;20429;-83
2022/12/06 10:36:19;;;;;;;17.88;5.50;;;;;;;9.53;100.00;101881.28;5104797;28;20020;-83
2022/12/06 10:38:50;;;;;;;17.50;5.70;;;;;;;10.78;100.00;101885.88;5087826;28;20106;-74
2022/12/06 10:41:32;;;;;;;18.02;5.10;;;;;;;11.50;100.00;101884.56;5091933;28;20028;-72
2022/12/06 10:44:08;;;;;;;16.48;4.88;;;;;;;12.38;100.00;101888.56;5094905;28;20118;-71
2022/12/06 10:47:05;;;;;;;16.40;4.90;;;;;;;12.49;100.00;101895.78;5097636;28;20375;-70
2022/12/06 10:49:49;;;;;;;14.98;4.45;;;;;;;11.38;100.00;101888.75;5094597;28;20111;-69
2022/12/06 10:52:29;;;;;;;16.95;4.85;;;;;;;9.82;100.00;101888.16;5096619;28;20028;-69
2022/12/06 10:55:09;;;;;;;17.02;4.88;;;;;;;9.08;100.00;101881.88;5094507;28;20028;-69
2022/12/06 10:57:48;;;;;;;15.45;4.80;;;;;;;8.73;100.00;101885.31;5094529;28;20111;-70
2022/12/06 11:00:18;;;;;;;15.75;4.75;;;;;;;9.72;100.00;101887.91;5097769;28;20482;-82
2022/12/06 11:02:56;;;;;;;17.00;4.40;;;;;;;10.99;100.00;101893.31;5096840;28;20486;-82
2022/12/06 11:05:31;;;;;;;16.10;4.50;;;;;;;11.84;100.00;101885.13;5102151;28;20038;-78
2022/12/06 11:08:22;;;;;;;17.35;4.82;;;;;;;12.93;100.00;101894.53;5098493;28;20030;-80
2022/12/06 11:10:50;;;;;;;14.85;4.20;;;;;;;13.82;100.00;101892.78;5096712;28;20123;-80
2022/12/06 11:13:28;;;;;;;16.08;3.92;;;;;;;14.04;100.00;101885.81;5108568;28;20023;-74
2022/12/06 11:16:17;;;;;;;11.43;3.50;;;;;;;14.26;100.00;101884.19;5102267;28;20035;-69
2022/12/06 11:18:44;;;;;;;10.43;3.38;;;;;;;14.66;100.00;101882.63;5105403;27;20028;-75
2022/12/06 11:21:25;;;;;;;11.30;3.28;;;;;;;15.11;100.00;101887.19;5106340;28;20032;-71
2022/12/06 11:24:20;;;;;;;10.68;3.40;;;;;;;15.55;100.00;101887.25;5101268;28;20032;-82
2022/12/06 11:26:53;;;;;;;8.75;3.28;;;;;;;16.54;100.00;101882.66;5108029;28;20081;-81
2022/12/06 11:29:18;;;;;;;9.80;3.50;;;;;;;17.04;91.59;101875.31;5101013;28;20047;-83
2022/12/06 11:31:49;;;;;;;9.23;2.90;;;;;;;16.89;69.52;101879.84;5107803;28;20154;-81
2022/12/06 11:34:20;;;;;;;12.45;3.30;;;;;;;15.22;66.39;101878.31;5103656;28;20039;-81
2022/12/06 11:36:48;;;;;;;10.05;3.10;;;;;;;15.33;66.39;101874.81;5107992;28;20027;-75
2022/12/06 11:39:14;;;;;;;10.80;3.17;;;;;;;16.02;63.19;101870.38;5105321;28;20020;-71
2022/12/06 11:41:44;;;;;;;12.40;3.20;;;;;;;15.25;63.53;101867.72;5104485;28;20024;-81
2022/12/06 11:44:17;;;;;;;11.68;3.35;;;;;;;14.36;71.37;101863.84;5100565;28;20121;-82
2022/12/06 11:46:43;;;;;;;12.48;3.20;;;;;;;14.21;68.71;101863.75;5101101;28;20047;-81
2022/12/06 11:49:26;;;;;;;13.57;3.30;;;;;;;13.70;68.00;101858.13;5107105;28;20035;-81
2022/12/06 11:51:52;;;;;;;11.38;3.00;;;;;;;13.10;67.01;101846.94;5103417;28;20411;-82